Main page
METAR-TAF:

METAR-TAF

Airports :

Cascais Municipal Aerodrome

Cascais, Portugal

latitude: 38-43-32N, longitude: 009-21-19W, elevation: 99 m

Current weather observation

The report was made 1 hour and 34 minutes ago, at 21:00 UTC
Wind 17 kt from the North
Temperature 20°C
Humidity 78%
Pressure 1020 hPa
Visibility 10 km or more
Few clouds at a height of 2000 ft

METAR: LPCS 212100Z 01017KT 9999 FEW020 20/16 Q1020

Time: 23:34 (22:34 UTC)

Forecast

The report was made 8 hours and 34 minutes ago, at 14:00 UTC
Forecast valid from 21 at 15 UTC to 21 at 24 UTC
Wind 18 kt from the North
Visibility 10 km or more
no clouds below 1500 m and no cumulonimbus

TAF: LPCS 211400Z 2115/2124 35018KT CAVOK

Weather observations and forecasts of more than 4000 airports (METAR and TAF reports).

The available stations are represented by yellow and red dots on the map.

Hover mouse over dot to see the name of the station.

Then click to see weather observations and forecasts.

To change the map : click on the green buttons with a black cross to zoom in, on the green button with a dash to zoom out, or on the green arrows for adjacent maps.


METAR-TAF: